Time;durP1;ratioP1;P1;durP2;ratioP2;P2;SDS_P1;SDS_P2;PMS_P1;PMS_P2;Temp;Humidity;BMP_temperature;BMP_pressure;BME280_temperature;BME280_humidity;BME280_pressure;Samples;Min_cycle;Max_cycle;Signal;HPM_P1;HPM_P2
2023/05/10 00:01:47;;;;;;;6.30;5.47;;;;;;;;;;5014773;28;20464;-67
2023/05/10 00:04:14;;;;;;;6.20;5.60;;;;;;;;;;5015155;28;20802;-67
2023/05/10 00:06:43;;;;;;;7.23;6.53;;;;;;;;;;5015599;28;20450;-67
2023/05/10 00:09:10;;;;;;;8.30;6.30;;;;;;;;;;5014637;28;20446;-67
2023/05/10 00:11:37;;;;;;;8.50;5.87;;;;;;;;;;5014990;28;20437;-67
2023/05/10 00:14:04;;;;;;;8.33;7.30;;;;;;;;;;5014852;28;20450;-66
2023/05/10 00:16:31;;;;;;;8.23;6.97;;;;;;;;;;5014695;28;20447;-67
2023/05/10 00:18:58;;;;;;;9.00;7.57;;;;;;;;;;5014868;28;20464;-67
2023/05/10 00:21:28;;;;;;;10.13;7.50;;;;;;;;;;5015083;28;20450;-67
2023/05/10 00:23:56;;;;;;;9.57;7.33;;;;;;;;;;5014851;28;20558;-67
2023/05/10 00:26:23;;;;;;;12.33;8.00;;;;;;;;;;5014395;28;20963;-67
2023/05/10 00:28:50;;;;;;;8.47;7.60;;;;;;;;;;5014586;28;20461;-67
2023/05/10 00:31:18;;;;;;;8.47;7.63;;;;;;;;;;5014378;28;20460;-67
2023/05/10 00:33:45;;;;;;;10.57;8.70;;;;;;;;;;5014247;28;20465;-67
2023/05/10 00:36:12;;;;;;;11.37;9.47;;;;;;;;;;5014307;28;20446;-66
2023/05/10 00:38:40;;;;;;;10.60;7.87;;;;;;;;;;5014099;28;20500;-67
2023/05/10 00:41:08;;;;;;;11.00;8.97;;;;;;;;;;5014184;28;20453;-67
2023/05/10 00:43:35;;;;;;;12.07;8.40;;;;;;;;;;5014315;28;20478;-66
2023/05/10 00:46:03;;;;;;;8.53;7.30;;;;;;;;;;5014463;28;20445;-66
2023/05/10 00:48:30;;;;;;;10.50;8.40;;;;;;;;;;5014483;28;20446;-67
2023/05/10 00:50:57;;;;;;;8.63;7.83;;;;;;;;;;5014390;28;20443;-67
2023/05/10 00:53:25;;;;;;;10.03;8.80;;;;;;;;;;5014671;28;20450;-67
2023/05/10 00:55:52;;;;;;;11.93;8.73;;;;;;;;;;5014271;28;20501;-67
2023/05/10 00:58:21;;;;;;;12.53;9.03;;;;;;;;;;5014074;28;20961;-66
2023/05/10 01:00:48;;;;;;;10.07;8.77;;;;;;;;;;5013872;28;20442;-66
2023/05/10 01:03:15;;;;;;;9.80;8.10;;;;;;;;;;5013621;28;20482;-67
2023/05/10 01:05:42;;;;;;;8.97;8.07;;;;;;;;;;5013682;28;20456;-67
2023/05/10 01:08:10;;;;;;;10.17;8.87;;;;;;;;;;5014563;28;20943;-67
2023/05/10 01:10:37;;;;;;;10.83;8.40;;;;;;;;;;5013668;28;20450;-67
2023/05/10 01:13:04;;;;;;;10.23;8.60;;;;;;;;;;5014095;28;20450;-67
2023/05/10 01:15:33;;;;;;;9.00;7.83;;;;;;;;;;5014115;28;20458;-66
2023/05/10 01:18:00;;;;;;;9.50;8.10;;;;;;;;;;5013886;28;20472;-66
2023/05/10 01:20:29;;;;;;;10.27;8.00;;;;;;;;;;5014248;28;20802;-66
2023/05/10 01:23:12;;;;;;;10.20;8.50;;;;;;;;;;5014312;28;20551;-66
2023/05/10 01:25:50;;;;;;;9.20;7.27;;;;;;;;;;5013840;28;20430;-66
2023/05/10 01:28:36;;;;;;;7.30;6.60;;;;;;;;;;5013769;28;20438;-67
2023/05/10 01:31:10;;;;;;;7.30;5.03;;;;;;;;;;5014058;28;20453;-68
2023/05/10 01:33:41;;;;;;;6.63;5.10;;;;;;;;;;5013996;28;20437;-67
2023/05/10 01:36:14;;;;;;;4.60;4.17;;;;;;;;;;5013689;28;20874;-67
2023/05/10 01:38:46;;;;;;;4.40;4.00;;;;;;;;;;5014611;28;20489;-67
2023/05/10 01:41:16;;;;;;;6.30;4.60;;;;;;;;;;5020274;28;20492;-67
2023/05/10 01:43:48;;;;;;;3.80;3.50;;;;;;;;;;5020321;28;20468;-67
2023/05/10 01:46:18;;;;;;;3.07;2.67;;;;;;;;;;5020266;28;20431;-67
2023/05/10 01:48:49;;;;;;;3.90;3.33;;;;;;;;;;5019832;28;20469;-67
2023/05/10 01:51:18;;;;;;;2.73;2.53;;;;;;;;;;5020285;28;20425;-67
2023/05/10 01:53:46;;;;;;;2.87;2.67;;;;;;;;;;5019718;28;20453;-67
2023/05/10 01:56:14;;;;;;;3.23;2.93;;;;;;;;;;5020076;28;20445;-67
2023/05/10 01:58:42;;;;;;;3.47;2.27;;;;;;;;;;5019653;28;20969;-67
2023/05/10 02:01:09;;;;;;;2.40;2.20;;;;;;;;;;5019715;28;20531;-67
2023/05/10 02:03:37;;;;;;;1.70;1.60;;;;;;;;;;5019867;28;20520;-67
2023/05/10 02:06:06;;;;;;;3.03;1.83;;;;;;;;;;5020062;28;20437;-67
2023/05/10 02:08:34;;;;;;;2.00;1.70;;;;;;;;;;5019708;28;20563;-67
2023/05/10 02:11:02;;;;;;;3.63;2.10;;;;;;;;;;5019798;28;20449;-68
2023/05/10 02:13:30;;;;;;;3.00;2.47;;;;;;;;;;5019935;28;20444;-67
2023/05/10 02:15:58;;;;;;;2.80;2.50;;;;;;;;;;5019964;28;20845;-67
2023/05/10 02:18:26;;;;;;;3.27;2.73;;;;;;;;;;5019929;28;20447;-67
2023/05/10 02:20:54;;;;;;;2.70;2.50;;;;;;;;;;5019882;28;20807;-67
2023/05/10 02:23:23;;;;;;;3.10;2.53;;;;;;;;;;5019801;28;20829;-67
2023/05/10 02:25:51;;;;;;;4.40;3.23;;;;;;;;;;5019413;28;20450;-67
2023/05/10 02:28:18;;;;;;;2.87;2.67;;;;;;;;;;5019860;28;20445;-67
2023/05/10 02:30:46;;;;;;;3.87;3.53;;;;;;;;;;5019740;28;20875;-67
2023/05/10 02:33:13;;;;;;;3.40;3.07;;;;;;;;;;5019779;28;20448;-67
2023/05/10 02:35:41;;;;;;;5.87;3.70;;;;;;;;;;5019415;28;20454;-67
2023/05/10 02:38:09;;;;;;;4.37;3.73;;;;;;;;;;5020049;28;20484;-67
2023/05/10 02:40:38;;;;;;;4.27;3.43;;;;;;;;;;5019650;28;20455;-67
2023/05/10 02:43:06;;;;;;;4.97;3.90;;;;;;;;;;5020067;28;20835;-67
2023/05/10 02:45:33;;;;;;;4.67;3.50;;;;;;;;;;5019422;28;20980;-67
2023/05/10 02:48:01;;;;;;;3.80;3.20;;;;;;;;;;5019369;28;20563;-67
2023/05/10 02:50:29;;;;;;;5.83;4.20;;;;;;;;;;5017027;28;21000;-67
2023/05/10 02:53:01;;;;;;;4.37;3.97;;;;;;;;;;5016821;28;20482;-67
2023/05/10 02:55:33;;;;;;;5.00;4.40;;;;;;;;;;5016677;28;20777;-67
2023/05/10 02:58:02;;;;;;;6.10;5.07;;;;;;;;;;5016723;28;20439;-67
2023/05/10 03:00:29;;;;;;;5.30;4.80;;;;;;;;;;5016070;28;20447;-67
2023/05/10 03:02:56;;;;;;;6.30;5.17;;;;;;;;;;5015926;28;20488;-67
2023/05/10 03:05:24;;;;;;;6.63;4.83;;;;;;;;;;5016466;28;20505;-67
2023/05/10 03:07:51;;;;;;;4.60;4.20;;;;;;;;;;5016331;28;20437;-67
2023/05/10 03:10:19;;;;;;;5.30;4.70;;;;;;;;;;5016275;28;20455;-67
2023/05/10 03:12:52;;;;;;;5.20;4.70;;;;;;;;;;5016059;28;20448;-67
2023/05/10 03:15:33;;;;;;;5.37;4.87;;;;;;;;;;5016192;28;20793;-67
2023/05/10 03:18:03;;;;;;;7.70;4.93;;;;;;;;;;5016577;28;20779;-67
2023/05/10 03:20:31;;;;;;;5.37;4.87;;;;;;;;;;5016293;28;20441;-67
2023/05/10 03:23:02;;;;;;;5.47;4.97;;;;;;;;;;5015900;28;20513;-67
2023/05/10 03:25:30;;;;;;;6.00;5.40;;;;;;;;;;5016154;28;20936;-66
2023/05/10 03:27:58;;;;;;;10.50;5.10;;;;;;;;;;5015538;28;20441;-67
2023/05/10 03:30:26;;;;;;;5.17;4.67;;;;;;;;;;5015781;28;20444;-67
2023/05/10 03:32:54;;;;;;;5.77;4.83;;;;;;;;;;5015492;28;21044;-67
2023/05/10 03:35:21;;;;;;;7.37;5.10;;;;;;;;;;5015375;28;20899;-68
2023/05/10 03:37:48;;;;;;;5.50;4.47;;;;;;;;;;5015511;28;20964;-67
2023/05/10 03:40:15;;;;;;;5.00;4.50;;;;;;;;;;5015558;28;20802;-67
2023/05/10 03:42:43;;;;;;;6.03;5.00;;;;;;;;;;5015522;28;20935;-67
2023/05/10 03:45:10;;;;;;;8.80;6.03;;;;;;;;;;5015445;28;20977;-67
2023/05/10 03:47:39;;;;;;;6.20;5.17;;;;;;;;;;5014428;28;20451;-67
2023/05/10 03:50:07;;;;;;;5.90;5.00;;;;;;;;;;5014972;28;20456;-67
2023/05/10 03:52:34;;;;;;;6.03;5.40;;;;;;;;;;5014439;28;21022;-67
2023/05/10 03:55:03;;;;;;;5.90;4.80;;;;;;;;;;5014994;28;20475;-67
2023/05/10 03:57:30;;;;;;;5.10;4.40;;;;;;;;;;5015088;28;20544;-67
2023/05/10 03:59:57;;;;;;;6.90;5.57;;;;;;;;;;5015235;28;20535;-67
2023/05/10 04:02:24;;;;;;;7.03;5.83;;;;;;;;;;5014328;28;20438;-67
2023/05/10 04:04:53;;;;;;;6.50;5.37;;;;;;;;;;5014693;28;21013;-67
2023/05/10 04:07:20;;;;;;;6.87;6.20;;;;;;;;;;5014801;28;20897;-66
2023/05/10 04:09:48;;;;;;;6.70;6.10;;;;;;;;;;5014760;28;20942;-67
2023/05/10 04:12:15;;;;;;;6.73;5.50;;;;;;;;;;5014948;28;20445;-67
2023/05/10 04:14:42;;;;;;;8.00;4.93;;;;;;;;;;5014865;28;20446;-67
2023/05/10 04:17:10;;;;;;;5.83;5.23;;;;;;;;;;5014862;28;20438;-67
2023/05/10 04:19:37;;;;;;;6.10;5.20;;;;;;;;;;5014724;28;20845;-67
2023/05/10 04:22:05;;;;;;;5.43;4.83;;;;;;;;;;5014920;28;20450;-67
2023/05/10 04:24:33;;;;;;;6.40;5.77;;;;;;;;;;5014828;28;20480;-67
2023/05/10 04:27:00;;;;;;;8.03;6.10;;;;;;;;;;5014849;28;20446;-67
2023/05/10 04:29:27;;;;;;;6.17;5.57;;;;;;;;;;5014934;28;20448;-67
2023/05/10 04:31:56;;;;;;;11.20;6.10;;;;;;;;;;5014525;28;20449;-67
2023/05/10 04:34:23;;;;;;;7.27;6.40;;;;;;;;;;5014712;28;20496;-66
2023/05/10 04:36:50;;;;;;;6.73;6.03;;;;;;;;;;5014338;28;20472;-66
2023/05/10 04:39:19;;;;;;;7.27;6.00;;;;;;;;;;5014664;28;20449;-67
2023/05/10 04:41:46;;;;;;;8.50;6.60;;;;;;;;;;5014392;28;20766;-67
2023/05/10 04:44:13;;;;;;;8.00;6.90;;;;;;;;;;5014761;28;20481;-70
2023/05/10 04:46:40;;;;;;;9.23;7.90;;;;;;;;;;5014121;28;20934;-69
2023/05/10 04:49:07;;;;;;;11.67;8.43;;;;;;;;;;5014070;28;20456;-68
2023/05/10 04:51:35;;;;;;;13.07;9.07;;;;;;;;;;5013763;28;20453;-68
2023/05/10 04:54:02;;;;;;;12.20;9.73;;;;;;;;;;5014042;28;20450;-67
2023/05/10 04:56:30;;;;;;;11.27;8.93;;;;;;;;;;5014293;28;20941;-68
2023/05/10 04:58:57;;;;;;;12.40;9.73;;;;;;;;;;5014127;28;20441;-68
2023/05/10 05:01:25;;;;;;;13.73;10.00;;;;;;;;;;5013713;28;20451;-68
2023/05/10 05:03:52;;;;;;;14.33;9.40;;;;;;;;;;5014143;28;20835;-68
2023/05/10 05:06:20;;;;;;;16.47;11.10;;;;;;;;;;5014441;28;20450;-68
2023/05/10 05:08:49;;;;;;;13.90;10.60;;;;;;;;;;5014546;28;20540;-67
2023/05/10 05:11:16;;;;;;;14.63;10.50;;;;;;;;;;5013959;28;20453;-68
2023/05/10 05:13:45;;;;;;;18.60;11.20;;;;;;;;;;5012803;28;20454;-67
2023/05/10 05:16:12;;;;;;;16.83;11.80;;;;;;;;;;5013871;28;20615;-67
2023/05/10 05:18:39;;;;;;;18.00;12.80;;;;;;;;;;5013326;28;20446;-67
2023/05/10 05:21:15;;;;;;;16.30;11.40;;;;;;;;;;5013383;28;20446;-67
2023/05/10 05:23:42;;;;;;;23.10;12.40;;;;;;;;;;5013287;28;20522;-68
2023/05/10 05:26:09;;;;;;;20.77;12.97;;;;;;;;;;5013712;28;20551;-67
2023/05/10 05:28:37;;;;;;;20.60;12.57;;;;;;;;;;5013934;28;20460;-68
2023/05/10 05:31:05;;;;;;;23.27;13.60;;;;;;;;;;5013381;28;20456;-68
2023/05/10 05:33:33;;;;;;;22.90;14.17;;;;;;;;;;5013499;28;20460;-68
2023/05/10 05:36:02;;;;;;;26.87;16.20;;;;;;;;;;5013715;28;20444;-68
2023/05/10 05:38:29;;;;;;;23.77;13.80;;;;;;;;;;5013289;28;20967;-68
2023/05/10 05:40:56;;;;;;;29.00;14.70;;;;;;;;;;5012808;28;20457;-67
2023/05/10 05:43:23;;;;;;;27.83;14.73;;;;;;;;;;5013413;28;20445;-68
2023/05/10 05:45:50;;;;;;;33.33;16.70;;;;;;;;;;5013141;28;20454;-67
2023/05/10 05:48:19;;;;;;;26.73;16.23;;;;;;;;;;5012987;28;20940;-68
2023/05/10 05:50:46;;;;;;;31.83;16.23;;;;;;;;;;5013526;28;20441;-68
2023/05/10 05:53:14;;;;;;;31.03;16.37;;;;;;;;;;5013087;28;20953;-68
2023/05/10 05:55:41;;;;;;;32.03;17.07;;;;;;;;;;5013131;28;20450;-68
2023/05/10 05:58:08;;;;;;;31.17;17.30;;;;;;;;;;5013245;28;20450;-68
2023/05/10 06:00:36;;;;;;;36.53;18.70;;;;;;;;;;5013463;28;20451;-68
2023/05/10 06:03:03;;;;;;;41.57;18.40;;;;;;;;;;5012856;28;20458;-67
2023/05/10 06:05:32;;;;;;;42.13;20.00;;;;;;;;;;5012850;28;20480;-68
2023/05/10 06:08:01;;;;;;;43.47;19.27;;;;;;;;;;5013188;28;20458;-68
2023/05/10 06:10:28;;;;;;;42.53;19.07;;;;;;;;;;5012786;28;20987;-68
2023/05/10 06:12:55;;;;;;;46.53;20.50;;;;;;;;;;5012885;28;20457;-68
2023/05/10 06:15:22;;;;;;;46.90;20.57;;;;;;;;;;5013155;28;20541;-68
2023/05/10 06:17:50;;;;;;;38.50;19.27;;;;;;;;;;5013012;28;20445;-68
2023/05/10 06:20:17;;;;;;;38.00;19.97;;;;;;;;;;5012940;28;20444;-68
2023/05/10 06:22:46;;;;;;;47.13;19.97;;;;;;;;;;5013633;28;20444;-68
2023/05/10 06:25:14;;;;;;;43.67;19.50;;;;;;;;;;5014388;28;20580;-68
2023/05/10 06:27:41;;;;;;;39.73;20.47;;;;;;;;;;5016689;28;20450;-68
2023/05/10 06:30:09;;;;;;;41.77;20.83;;;;;;;;;;5016827;28;20454;-68
2023/05/10 06:32:36;;;;;;;49.67;22.13;;;;;;;;;;5016705;28;20442;-68
2023/05/10 06:35:03;;;;;;;36.60;17.47;;;;;;;;;;5016963;28;20452;-68
2023/05/10 06:37:31;;;;;;;32.40;17.80;;;;;;;;;;5016534;28;20823;-67
2023/05/10 06:39:59;;;;;;;30.20;16.17;;;;;;;;;;5016001;28;20952;-67
2023/05/10 06:42:27;;;;;;;31.33;17.70;;;;;;;;;;5017000;28;20454;-68
2023/05/10 06:44:54;;;;;;;32.70;17.17;;;;;;;;;;5016156;28;20521;-66
2023/05/10 06:47:21;;;;;;;28.03;15.47;;;;;;;;;;5016072;28;20450;-66
2023/05/10 06:49:48;;;;;;;31.63;16.20;;;;;;;;;;5016055;28;20454;-66
2023/05/10 06:52:16;;;;;;;32.77;17.20;;;;;;;;;;5016192;28;20446;-66
2023/05/10 06:54:44;;;;;;;32.17;16.27;;;;;;;;;;5016142;28;20462;-66
2023/05/10 06:57:12;;;;;;;37.93;19.60;;;;;;;;;;5016261;28;20451;-66
2023/05/10 06:59:39;;;;;;;34.10;19.20;;;;;;;;;;5015836;28;20451;-66
2023/05/10 07:02:06;;;;;;;42.27;19.73;;;;;;;;;;5015703;28;20454;-66
2023/05/10 07:04:34;;;;;;;46.10;22.17;;;;;;;;;;5015999;28;20501;-66
2023/05/10 07:07:01;;;;;;;45.57;22.43;;;;;;;;;;5016531;28;20446;-66
2023/05/10 07:09:28;;;;;;;43.63;22.83;;;;;;;;;;5015988;28;20442;-66
2023/05/10 07:11:57;;;;;;;47.80;25.07;;;;;;;;;;5008636;28;20451;-66
2023/05/10 07:14:25;;;;;;;56.17;23.67;;;;;;;;;;4996097;28;20586;-65
2023/05/10 07:16:52;;;;;;;47.30;21.90;;;;;;;;;;4996663;28;20454;-65
2023/05/10 07:19:20;;;;;;;56.70;25.40;;;;;;;;;;4996644;28;20443;-65
2023/05/10 07:21:47;;;;;;;53.73;25.47;;;;;;;;;;4996113;28;20451;-65
2023/05/10 07:24:14;;;;;;;61.87;27.90;;;;;;;;;;4996049;28;20453;-67
2023/05/10 07:26:41;;;;;;;59.37;29.40;;;;;;;;;;4995968;28;20971;-65
2023/05/10 07:29:09;;;;;;;67.70;30.53;;;;;;;;;;4996187;28;20534;-65
2023/05/10 07:31:38;;;;;;;60.90;29.70;;;;;;;;;;4996261;28;20796;-65
2023/05/10 07:34:05;;;;;;;63.77;29.70;;;;;;;;;;4996067;28;20444;-65
2023/05/10 07:36:32;;;;;;;58.70;30.07;;;;;;;;;;4995034;28;20879;-67
2023/05/10 07:39:00;;;;;;;62.27;30.87;;;;;;;;;;4996128;28;20489;-67
2023/05/10 07:41:27;;;;;;;59.03;30.00;;;;;;;;;;4996170;28;20491;-66
2023/05/10 07:43:54;;;;;;;62.60;31.30;;;;;;;;;;4995951;28;20446;-66
2023/05/10 07:46:21;;;;;;;54.27;29.20;;;;;;;;;;4996689;28;20901;-66
2023/05/10 07:48:50;;;;;;;50.87;28.90;;;;;;;;;;4996649;28;20536;-67
2023/05/10 07:51:17;;;;;;;51.83;28.33;;;;;;;;;;4995963;28;20453;-67
2023/05/10 07:53:44;;;;;;;45.87;29.20;;;;;;;;;;5008082;28;21019;-67
2023/05/10 07:56:26;;;;;;;47.70;28.10;;;;;;;;;;5015270;28;20451;-66
2023/05/10 07:58:54;;;;;;;41.83;26.40;;;;;;;;;;5014966;28;20474;-67
2023/05/10 08:01:21;;;;;;;42.40;26.73;;;;;;;;;;5015267;28;20446;-66
2023/05/10 08:03:50;;;;;;;45.50;26.47;;;;;;;;;;5014883;28;20956;-67
2023/05/10 08:06:18;;;;;;;47.00;25.37;;;;;;;;;;5015016;28;20482;-66
2023/05/10 08:08:49;;;;;;;44.33;26.73;;;;;;;;;;5014768;28;20454;-66
2023/05/10 08:11:16;;;;;;;51.07;25.47;;;;;;;;;;5014688;28;20437;-68
2023/05/10 08:13:43;;;;;;;40.53;25.13;;;;;;;;;;5015036;28;20447;-67
2023/05/10 08:16:10;;;;;;;38.43;24.03;;;;;;;;;;5013954;28;20534;-67
2023/05/10 08:18:38;;;;;;;46.37;26.40;;;;;;;;;;5014534;28;20451;-67
2023/05/10 08:21:07;;;;;;;44.23;26.57;;;;;;;;;;5014827;28;20442;-67
2023/05/10 08:23:34;;;;;;;45.23;23.80;;;;;;;;;;5014693;28;20447;-67
2023/05/10 08:26:01;;;;;;;46.47;25.80;;;;;;;;;;5014739;28;20482;-67
2023/05/10 08:28:29;;;;;;;40.90;24.70;;;;;;;;;;5014366;28;20450;-67
2023/05/10 08:30:56;;;;;;;42.93;23.83;;;;;;;;;;5014308;28;20935;-67
2023/05/10 08:33:23;;;;;;;40.23;23.80;;;;;;;;;;5014603;28;20804;-67
2023/05/10 08:35:50;;;;;;;39.23;24.00;;;;;;;;;;5014422;28;20453;-67
2023/05/10 08:38:19;;;;;;;35.67;25.00;;;;;;;;;;5014719;28;20495;-67
2023/05/10 08:40:47;;;;;;;39.57;22.90;;;;;;;;;;5013985;28;20479;-67
2023/05/10 08:43:15;;;;;;;39.70;24.50;;;;;;;;;;5014061;28;20451;-67
2023/05/10 08:45:43;;;;;;;35.30;23.90;;;;;;;;;;5014271;28;20812;-67
2023/05/10 08:48:11;;;;;;;37.83;25.83;;;;;;;;;;5013826;28;20442;-67
2023/05/10 08:50:39;;;;;;;35.50;22.47;;;;;;;;;;5014007;28;20442;-67
2023/05/10 08:53:07;;;;;;;32.20;20.70;;;;;;;;;;5013942;28;20447;-67
2023/05/10 08:55:38;;;;;;;41.80;23.50;;;;;;;;;;5014117;28;20545;-67
2023/05/10 08:58:05;;;;;;;30.53;22.00;;;;;;;;;;5014727;28;20772;-67
2023/05/10 09:00:33;;;;;;;32.47;19.93;;;;;;;;;;5014331;28;20445;-67
2023/05/10 09:03:00;;;;;;;35.73;20.57;;;;;;;;;;5014272;28;20807;-67
2023/05/10 09:05:28;;;;;;;37.07;22.80;;;;;;;;;;5014049;28;20570;-67
2023/05/10 09:07:55;;;;;;;30.70;21.70;;;;;;;;;;5014455;28;20764;-67
2023/05/10 09:10:22;;;;;;;31.17;21.40;;;;;;;;;;5014135;28;20457;-67
2023/05/10 09:12:51;;;;;;;29.20;21.07;;;;;;;;;;5014351;28;20549;-67
2023/05/10 09:15:19;;;;;;;31.67;22.27;;;;;;;;;;5013442;28;20978;-67
2023/05/10 09:17:47;;;;;;;34.33;22.73;;;;;;;;;;5014176;28;20442;-67
2023/05/10 09:20:14;;;;;;;32.57;22.80;;;;;;;;;;5013414;28;20951;-67
2023/05/10 09:22:41;;;;;;;28.50;19.07;;;;;;;;;;5013482;28;20450;-67
2023/05/10 09:25:10;;;;;;;29.73;19.60;;;;;;;;;;5013321;28;20977;-67
2023/05/10 09:27:38;;;;;;;26.37;18.17;;;;;;;;;;5014002;28;20449;-67
2023/05/10 09:30:07;;;;;;;23.97;16.87;;;;;;;;;;5013503;28;20454;-66
2023/05/10 09:32:38;;;;;;;21.73;16.33;;;;;;;;;;5013262;28;20932;-72
2023/05/10 09:35:09;;;;;;;23.53;14.67;;;;;;;;;;5013337;28;20446;-70
2023/05/10 09:37:36;;;;;;;23.67;15.60;;;;;;;;;;5013064;28;20467;-66
2023/05/10 09:40:06;;;;;;;20.57;15.73;;;;;;;;;;5013487;28;20454;-66
2023/05/10 09:42:33;;;;;;;19.63;15.40;;;;;;;;;;5013484;28;20462;-66
2023/05/10 09:45:02;;;;;;;27.03;18.20;;;;;;;;;;5012651;28;20451;-66
2023/05/10 09:47:30;;;;;;;24.57;16.93;;;;;;;;;;5013374;28;20447;-66
2023/05/10 09:50:02;;;;;;;27.43;17.70;;;;;;;;;;5013112;28;20443;-66
2023/05/10 09:52:30;;;;;;;26.73;18.00;;;;;;;;;;5013486;28;20538;-66
2023/05/10 09:54:57;;;;;;;26.13;20.50;;;;;;;;;;5013154;28;20457;-66
2023/05/10 09:57:26;;;;;;;26.73;17.23;;;;;;;;;;5012912;28;20451;-66
2023/05/10 09:59:54;;;;;;;24.90;18.00;;;;;;;;;;5013920;28;20990;-66
2023/05/10 10:02:21;;;;;;;29.50;18.20;;;;;;;;;;5017251;28;20516;-66
2023/05/10 10:04:52;;;;;;;26.27;17.83;;;;;;;;;;5017264;28;20436;-66
2023/05/10 10:07:24;;;;;;;26.80;18.13;;;;;;;;;;5017120;28;20818;-66
2023/05/10 10:09:51;;;;;;;26.30;17.70;;;;;;;;;;5017077;28;20492;-66
2023/05/10 10:12:19;;;;;;;23.80;15.10;;;;;;;;;;5017157;28;20447;-65
2023/05/10 10:14:47;;;;;;;27.60;15.13;;;;;;;;;;5016816;28;20529;-65
2023/05/10 10:17:14;;;;;;;22.13;16.10;;;;;;;;;;5017282;28;20454;-66
2023/05/10 10:19:42;;;;;;;24.87;17.17;;;;;;;;;;5017411;28;20454;-65
2023/05/10 10:22:12;;;;;;;28.57;18.43;;;;;;;;;;5017013;28;20472;-66
2023/05/10 10:24:40;;;;;;;25.63;16.40;;;;;;;;;;5016920;28;20440;-65
2023/05/10 10:27:15;;;;;;;24.80;16.17;;;;;;;;;;5016410;28;20484;-65
2023/05/10 10:29:58;;;;;;;24.50;14.30;;;;;;;;;;5017126;28;20888;-65
2023/05/10 10:32:27;;;;;;;24.10;16.63;;;;;;;;;;5017154;28;20441;-66
2023/05/10 10:34:55;;;;;;;23.87;16.10;;;;;;;;;;5016743;28;20481;-66
2023/05/10 10:37:24;;;;;;;27.00;15.77;;;;;;;;;;5016318;28;20485;-66
2023/05/10 10:39:51;;;;;;;28.20;18.07;;;;;;;;;;5017054;28;20447;-66
2023/05/10 10:42:33;;;;;;;24.90;17.90;;;;;;;;;;5016659;28;20445;-66
2023/05/10 10:45:13;;;;;;;22.70;15.67;;;;;;;;;;5015846;28;20450;-66
2023/05/10 10:47:40;;;;;;;21.43;15.10;;;;;;;;;;5016264;28;20434;-66
2023/05/10 10:50:09;;;;;;;20.77;14.93;;;;;;;;;;5016799;28;20867;-66
2023/05/10 10:52:38;;;;;;;23.33;16.60;;;;;;;;;;5016323;28;20493;-66
2023/05/10 10:55:07;;;;;;;25.40;17.57;;;;;;;;;;5016968;28;20465;-65
2023/05/10 10:57:43;;;;;;;25.60;19.00;;;;;;;;;;5016590;28;20881;-65
2023/05/10 11:00:21;;;;;;;23.60;17.23;;;;;;;;;;5016575;28;20967;-66
2023/05/10 11:02:49;;;;;;;22.20;15.60;;;;;;;;;;5015992;28;20536;-66
2023/05/10 11:05:26;;;;;;;18.53;14.57;;;;;;;;;;5016171;28;20574;-66
2023/05/10 11:07:56;;;;;;;22.70;16.03;;;;;;;;;;5015926;28;20447;-66
2023/05/10 11:10:23;;;;;;;19.90;16.60;;;;;;;;;;5016015;28;20443;-66
2023/05/10 11:12:54;;;;;;;19.07;15.23;;;;;;;;;;5014884;28;20440;-66
2023/05/10 11:15:21;;;;;;;23.10;15.90;;;;;;;;;;5015794;28;20443;-67
2023/05/10 11:17:51;;;;;;;24.93;18.20;;;;;;;;;;5016034;28;20450;-66
2023/05/10 11:20:22;;;;;;;22.60;17.00;;;;;;;;;;5015689;28;20463;-67
2023/05/10 11:22:53;;;;;;;27.60;18.00;;;;;;;;;;5014180;28;20479;-67
2023/05/10 11:25:22;;;;;;;21.40;14.73;;;;;;;;;;5015519;28;20633;-66
2023/05/10 11:27:49;;;;;;;19.10;14.13;;;;;;;;;;5015497;28;20483;-67
2023/05/10 11:30:16;;;;;;;21.83;15.50;;;;;;;;;;5015625;28;20443;-66
2023/05/10 11:32:44;;;;;;;20.20;16.27;;;;;;;;;;5015418;28;20449;-66
2023/05/10 11:35:11;;;;;;;18.73;14.17;;;;;;;;;;5015587;28;20452;-66
2023/05/10 11:37:43;;;;;;;26.30;18.67;;;;;;;;;;5015171;28;20475;-67
2023/05/10 11:40:11;;;;;;;27.40;19.37;;;;;;;;;;5015215;28;20780;-66
2023/05/10 11:42:40;;;;;;;25.03;17.33;;;;;;;;;;5015178;28;20447;-68
2023/05/10 11:45:08;;;;;;;20.37;17.00;;;;;;;;;;5014479;28;20438;-69
2023/05/10 11:47:36;;;;;;;21.37;15.60;;;;;;;;;;5015016;28;20581;-70
2023/05/10 11:50:04;;;;;;;23.00;16.50;;;;;;;;;;5015486;28;20505;-66
2023/05/10 11:52:37;;;;;;;20.47;13.63;;;;;;;;;;5015270;28;20477;-67
2023/05/10 11:55:04;;;;;;;24.47;15.40;;;;;;;;;;5015322;28;20833;-66
2023/05/10 11:57:32;;;;;;;20.20;15.40;;;;;;;;;;5014582;28;20505;-67
2023/05/10 12:00:02;;;;;;;24.30;15.93;;;;;;;;;;5014656;28;20456;-67
2023/05/10 12:02:30;;;;;;;24.30;17.53;;;;;;;;;;5014764;28;20459;-66
2023/05/10 12:04:58;;;;;;;23.37;16.77;;;;;;;;;;5014612;28;20497;-66
2023/05/10 12:07:25;;;;;;;24.57;16.37;;;;;;;;;;5014499;28;20504;-66
2023/05/10 12:10:05;;;;;;;23.43;16.63;;;;;;;;;;5014588;28;20449;-66
2023/05/10 12:12:37;;;;;;;20.33;16.30;;;;;;;;;;5014360;28;20931;-66
2023/05/10 12:15:06;;;;;;;25.93;16.30;;;;;;;;;;5015111;28;20452;-67
2023/05/10 12:17:33;;;;;;;28.73;17.70;;;;;;;;;;5014655;28;20474;-66
2023/05/10 12:20:01;;;;;;;19.60;15.97;;;;;;;;;;5014704;28;20450;-65
2023/05/10 12:22:28;;;;;;;24.40;17.03;;;;;;;;;;5014053;28;20520;-66
2023/05/10 12:24:56;;;;;;;20.47;15.47;;;;;;;;;;5014248;28;20447;-66
2023/05/10 12:27:23;;;;;;;23.47;15.83;;;;;;;;;;5014516;28;20837;-66
2023/05/10 12:29:50;;;;;;;21.33;16.63;;;;;;;;;;5014095;28;20929;-66
2023/05/10 12:32:18;;;;;;;21.60;15.13;;;;;;;;;;5014217;28;20458;-66
2023/05/10 12:34:48;;;;;;;17.97;15.10;;;;;;;;;;5014370;28;20479;-66
2023/05/10 12:37:15;;;;;;;21.80;14.73;;;;;;;;;;5013951;28;21013;-66
2023/05/10 12:39:43;;;;;;;18.83;14.60;;;;;;;;;;5014194;28;20479;-66
2023/05/10 12:42:11;;;;;;;18.90;15.13;;;;;;;;;;5014490;28;20447;-66
2023/05/10 12:44:38;;;;;;;17.10;14.33;;;;;;;;;;5014212;28;20438;-66
2023/05/10 12:47:05;;;;;;;15.93;13.90;;;;;;;;;;5013757;28;20475;-66
2023/05/10 12:49:34;;;;;;;23.50;13.57;;;;;;;;;;5014141;28;20447;-66
2023/05/10 12:52:01;;;;;;;15.33;11.63;;;;;;;;;;5013953;28;20875;-66
2023/05/10 12:54:35;;;;;;;13.73;9.47;;;;;;;;;;5014048;28;20443;-66
2023/05/10 12:57:02;;;;;;;13.90;10.43;;;;;;;;;;5014404;28;20530;-66
2023/05/10 12:59:29;;;;;;;13.37;10.60;;;;;;;;;;5014033;28;20448;-66
2023/05/10 13:01:56;;;;;;;15.03;11.73;;;;;;;;;;5014079;28;20454;-65
2023/05/10 13:04:23;;;;;;;12.07;10.63;;;;;;;;;;5014323;28;20450;-66
2023/05/10 13:06:52;;;;;;;14.70;11.10;;;;;;;;;;5013487;28;20499;-66
2023/05/10 13:09:20;;;;;;;14.73;10.97;;;;;;;;;;5014135;28;20439;-66
2023/05/10 13:11:48;;;;;;;11.73;10.20;;;;;;;;;;5013549;28;20478;-66
2023/05/10 13:14:15;;;;;;;13.07;10.00;;;;;;;;;;5013907;28;20448;-66
2023/05/10 13:16:42;;;;;;;12.60;10.70;;;;;;;;;;5014056;28;20453;-66
2023/05/10 13:19:09;;;;;;;13.90;10.93;;;;;;;;;;5013478;28;20946;-66
2023/05/10 13:21:36;;;;;;;11.23;10.00;;;;;;;;;;5013601;28;20458;-66
2023/05/10 13:24:05;;;;;;;12.33;10.00;;;;;;;;;;5013219;28;20448;-66
2023/05/10 13:26:32;;;;;;;16.37;12.20;;;;;;;;;;5013507;28;20483;-66
2023/05/10 13:29:00;;;;;;;17.53;13.40;;;;;;;;;;5013200;28;20533;-66
2023/05/10 13:31:27;;;;;;;15.07;12.00;;;;;;;;;;5013560;28;20443;-65
2023/05/10 13:33:54;;;;;;;17.40;12.77;;;;;;;;;;5013000;28;20525;-66
2023/05/10 13:36:22;;;;;;;17.00;11.23;;;;;;;;;;5012691;28;20950;-66
2023/05/10 13:38:49;;;;;;;17.00;12.13;;;;;;;;;;5013528;28;21054;-66
2023/05/10 13:41:18;;;;;;;19.90;14.83;;;;;;;;;;5013452;28;20465;-65
2023/05/10 13:43:45;;;;;;;16.87;13.83;;;;;;;;;;5012953;28;20436;-66
2023/05/10 13:46:12;;;;;;;17.53;14.03;;;;;;;;;;5013292;28;20871;-65
2023/05/10 13:48:40;;;;;;;19.93;15.40;;;;;;;;;;5013340;28;20450;-65
2023/05/10 13:51:07;;;;;;;26.93;17.03;;;;;;;;;;5013344;28;20446;-65
2023/05/10 13:53:34;;;;;;;26.67;16.73;;;;;;;;;;5012862;28;20454;-66
2023/05/10 13:56:02;;;;;;;25.37;16.33;;;;;;;;;;5013242;28;20443;-67
2023/05/10 13:58:30;;;;;;;22.83;16.90;;;;;;;;;;5013349;28;20553;-66
2023/05/10 14:00:57;;;;;;;25.23;16.97;;;;;;;;;;5012890;28;20452;-67
2023/05/10 14:03:25;;;;;;;24.80;17.87;;;;;;;;;;5013298;28;20446;-66
2023/05/10 14:05:52;;;;;;;28.43;18.43;;;;;;;;;;5012809;28;20483;-66
2023/05/10 14:08:20;;;;;;;24.27;17.13;;;;;;;;;;5012769;28;20501;-67
2023/05/10 14:10:48;;;;;;;27.40;17.60;;;;;;;;;;5013137;28;20521;-67
2023/05/10 14:13:15;;;;;;;28.37;17.90;;;;;;;;;;5012752;28;20447;-67
2023/05/10 14:15:44;;;;;;;25.23;17.87;;;;;;;;;;5012975;28;20456;-67
2023/05/10 14:18:16;;;;;;;27.10;18.40;;;;;;;;;;5013112;28;20454;-67
2023/05/10 14:20:43;;;;;;;25.67;17.40;;;;;;;;;;5013144;28;20430;-67
2023/05/10 14:23:10;;;;;;;23.23;17.53;;;;;;;;;;5013148;28;20447;-68
2023/05/10 14:25:37;;;;;;;21.63;16.90;;;;;;;;;;5013260;28;20452;-67
2023/05/10 14:28:05;;;;;;;25.10;17.50;;;;;;;;;;5013114;28;20490;-67
2023/05/10 14:30:33;;;;;;;21.33;16.03;;;;;;;;;;5012737;28;20514;-67
2023/05/10 14:33:02;;;;;;;22.83;16.43;;;;;;;;;;5012718;28;20450;-66